createdAt,value
2019-05-23T00:01:45.660Z,101175.00
2019-05-23T00:04:25.311Z,101171.00
2019-05-23T00:06:57.939Z,101172.00
2019-05-23T00:09:29.324Z,101172.00
2019-05-23T00:12:16.610Z,101156.00
2019-05-23T00:14:53.418Z,101172.00
2019-05-23T00:17:43.440Z,101175.00
2019-05-23T00:20:14.683Z,101168.00
2019-05-23T00:22:46.632Z,101167.00
2019-05-23T00:25:17.465Z,101183.00
2019-05-23T00:27:47.880Z,101164.00
2019-05-23T00:30:34.927Z,101164.00
2019-05-23T00:33:08.732Z,101172.00
2019-05-23T00:35:41.881Z,101168.00
2019-05-23T00:38:14.539Z,101161.00
2019-05-23T00:40:46.688Z,101156.00
2019-05-23T00:43:18.229Z,101164.00
2019-05-23T00:45:49.015Z,101167.00
2019-05-23T00:48:20.307Z,101160.00
2019-05-23T00:50:53.018Z,101151.00
2019-05-23T00:53:24.594Z,101167.00
2019-05-23T00:55:56.642Z,101164.00
2019-05-23T00:58:28.260Z,101166.00
2019-05-23T01:00:59.741Z,101172.00
2019-05-23T01:03:33.953Z,101172.00
2019-05-23T01:06:04.655Z,101173.00
2019-05-23T01:08:35.285Z,101173.00
2019-05-23T01:11:09.046Z,101165.00
2019-05-23T01:13:40.836Z,101172.00
2019-05-23T01:16:12.051Z,101166.00
2019-05-23T01:18:42.851Z,101154.00
2019-05-23T01:21:41.844Z,101162.00
2019-05-23T01:24:19.845Z,101155.00
2019-05-23T01:26:50.736Z,101153.00
2019-05-23T01:29:24.316Z,101158.00
2019-05-23T01:32:00.688Z,101154.00
2019-05-23T01:34:32.345Z,101155.00
2019-05-23T01:37:04.104Z,101157.00
2019-05-23T01:39:35.235Z,101157.00
2019-05-23T01:42:07.405Z,101157.00
2019-05-23T01:44:38.504Z,101155.00
2019-05-23T01:47:11.381Z,101162.00
2019-05-23T01:49:42.057Z,101156.00
2019-05-23T01:52:13.617Z,101154.00
2019-05-23T01:54:44.973Z,101167.00
2019-05-23T01:57:15.924Z,101164.00
2019-05-23T01:59:47.231Z,101159.00
2019-05-23T02:02:19.391Z,101171.00
2019-05-23T02:04:51.051Z,101171.00
2019-05-23T02:07:22.488Z,101173.00
2019-05-23T02:09:53.661Z,101167.00
2019-05-23T02:12:24.445Z,101169.00
2019-05-23T02:14:56.013Z,101164.00
2019-05-23T02:17:26.443Z,101174.00
2019-05-23T02:19:56.877Z,101167.00
2019-05-23T02:22:27.437Z,101172.00
2019-05-23T02:24:59.842Z,101158.00
2019-05-23T02:27:30.988Z,101175.00
2019-05-23T02:30:02.548Z,101169.00
2019-05-23T02:32:34.032Z,101168.00
2019-05-23T02:35:06.640Z,101157.00
2019-05-23T02:38:07.857Z,101164.00
2019-05-23T02:40:59.717Z,101164.00
2019-05-23T02:43:32.550Z,101164.00
2019-05-23T02:46:07.801Z,101161.00
2019-05-23T02:48:43.285Z,101155.00
2019-05-23T02:51:21.928Z,101159.00
2019-05-23T02:53:55.912Z,101153.00
2019-05-23T02:56:28.763Z,101157.00
2019-05-23T02:59:31.929Z,101151.00
2019-05-23T03:03:02.484Z,101154.00
2019-05-23T03:05:37.501Z,101156.00
2019-05-23T03:08:10.574Z,101146.00
2019-05-23T03:10:54.670Z,101152.00
2019-05-23T03:13:28.306Z,101153.00
2019-05-23T03:16:00.451Z,101153.00
2019-05-23T03:18:34.938Z,101155.00
2019-05-23T03:21:05.900Z,101157.00
2019-05-23T03:23:37.138Z,101147.00
2019-05-23T03:26:41.901Z,101143.00
2019-05-23T03:29:12.281Z,101151.00
2019-05-23T03:31:50.115Z,101143.00
2019-05-23T03:34:22.784Z,101139.00
2019-05-23T03:36:54.141Z,101138.00
2019-05-23T03:39:26.386Z,101133.00
2019-05-23T03:41:57.503Z,101123.00
2019-05-23T03:44:29.166Z,101132.00
2019-05-23T03:47:01.612Z,101123.00
2019-05-23T03:49:33.997Z,101133.00
2019-05-23T03:52:05.738Z,101136.00
2019-05-23T03:54:37.098Z,101128.00
2019-05-23T03:57:08.409Z,101130.00
2019-05-23T03:59:40.643Z,101137.00
2019-05-23T04:02:15.604Z,101136.00
2019-05-23T04:04:49.293Z,101132.00
2019-05-23T04:07:20.127Z,101131.00
2019-05-23T04:09:50.980Z,101133.00
2019-05-23T04:12:22.426Z,101128.00
2019-05-23T04:14:53.984Z,101135.00
2019-05-23T04:17:25.554Z,101132.00
2019-05-23T04:19:56.384Z,101127.00
2019-05-23T04:22:28.519Z,101144.00
2019-05-23T04:25:02.244Z,101141.00
2019-05-23T04:27:31.999Z,101138.00
2019-05-23T04:30:03.368Z,101129.00
2019-05-23T04:32:34.817Z,101143.00
2019-05-23T04:35:06.233Z,101144.00
2019-05-23T04:37:37.405Z,101137.00
2019-05-23T04:40:10.450Z,101131.00
2019-05-23T04:42:41.299Z,101133.00
2019-05-23T04:45:12.939Z,101129.00
2019-05-23T04:47:44.050Z,101139.00
2019-05-23T04:50:17.507Z,101136.00
2019-05-23T04:52:48.783Z,101142.00
2019-05-23T04:55:21.737Z,101139.00
2019-05-23T04:57:53.146Z,101137.00
2019-05-23T05:00:27.261Z,101161.00
2019-05-23T05:02:59.339Z,101151.00
2019-05-23T05:05:30.911Z,101143.00
2019-05-23T05:08:02.167Z,101163.00
2019-05-23T05:10:33.126Z,101158.00
2019-05-23T05:13:05.090Z,101157.00
2019-05-23T05:15:36.787Z,101160.00
2019-05-23T05:18:09.196Z,101152.00
2019-05-23T05:20:40.544Z,101158.00
2019-05-23T05:23:13.153Z,101159.00
2019-05-23T05:25:43.657Z,101161.00
2019-05-23T05:28:14.570Z,101162.00
2019-05-23T05:30:44.979Z,101161.00
2019-05-23T05:33:16.064Z,101162.00
2019-05-23T05:35:47.565Z,101166.00
2019-05-23T05:38:21.601Z,101166.00
2019-05-23T05:40:52.627Z,101166.00
2019-05-23T05:43:24.155Z,101175.00
2019-05-23T05:45:56.672Z,101183.00
2019-05-23T05:48:29.677Z,101172.00
2019-05-23T05:51:00.158Z,101180.00
2019-05-23T05:53:31.011Z,101185.00
2019-05-23T05:56:01.734Z,101182.00
2019-05-23T05:58:32.404Z,101181.00
2019-05-23T06:01:07.503Z,101182.00
2019-05-23T06:03:38.408Z,101182.00
2019-05-23T06:06:22.239Z,101181.00
2019-05-23T06:08:56.846Z,101184.00
2019-05-23T06:11:30.901Z,101191.00
2019-05-23T06:14:02.020Z,101193.00
2019-05-23T06:16:34.876Z,101188.00
2019-05-23T06:19:06.932Z,101190.00
2019-05-23T06:21:38.514Z,101191.00
2019-05-23T06:24:09.588Z,101180.00
2019-05-23T06:26:42.194Z,101188.00
2019-05-23T06:29:12.830Z,101189.00
2019-05-23T06:31:44.933Z,101195.00
2019-05-23T06:34:16.476Z,101179.00
2019-05-23T06:36:48.237Z,101176.00
2019-05-23T06:39:18.993Z,101177.00
2019-05-23T06:41:49.950Z,101177.00
2019-05-23T06:44:21.579Z,101183.00
2019-05-23T06:46:52.576Z,101183.00
2019-05-23T06:49:24.970Z,101182.00
2019-05-23T06:51:56.545Z,101184.00
2019-05-23T06:54:27.595Z,101183.00
2019-05-23T06:56:58.526Z,101192.00
2019-05-23T06:59:32.396Z,101176.00
2019-05-23T07:02:04.597Z,101180.00
2019-05-23T07:04:35.681Z,101179.00
2019-05-23T07:07:07.442Z,101177.00
2019-05-23T07:09:38.241Z,101177.00
2019-05-23T07:12:09.682Z,101184.00
2019-05-23T07:14:44.355Z,101172.00
2019-05-23T07:17:22.458Z,101184.00
2019-05-23T07:19:53.293Z,101174.00
2019-05-23T07:22:24.164Z,101171.00
2019-05-23T07:24:58.387Z,101181.00
2019-05-23T07:27:29.115Z,101181.00
2019-05-23T07:30:00.808Z,101179.00
2019-05-23T07:32:31.513Z,101184.00
2019-05-23T07:35:02.169Z,101179.00
2019-05-23T07:37:32.723Z,101185.00
2019-05-23T07:40:05.595Z,101189.00
2019-05-23T07:42:36.038Z,101182.00
2019-05-23T07:45:09.196Z,101192.00
2019-05-23T07:47:40.288Z,101189.00
2019-05-23T07:50:12.128Z,101186.00
2019-05-23T07:52:43.018Z,101190.00
2019-05-23T07:55:28.380Z,101186.00
2019-05-23T07:57:59.019Z,101199.00
2019-05-23T08:00:32.730Z,101177.00
2019-05-23T08:03:05.348Z,101191.00
2019-05-23T08:05:36.609Z,101187.00
2019-05-23T08:08:08.157Z,101188.00
2019-05-23T08:10:38.714Z,101192.00
2019-05-23T08:13:09.207Z,101180.00
2019-05-23T08:15:40.119Z,101182.00
2019-05-23T08:18:12.454Z,101184.00
2019-05-23T08:20:45.576Z,101188.00
2019-05-23T08:23:16.935Z,101188.00
2019-05-23T08:25:47.631Z,101192.00
2019-05-23T08:28:18.895Z,101186.00
2019-05-23T08:30:49.531Z,101193.00
2019-05-23T08:33:20.015Z,101198.00
2019-05-23T08:35:52.897Z,101189.00
2019-05-23T08:38:24.110Z,101191.00
2019-05-23T08:40:55.007Z,101183.00
2019-05-23T08:43:25.791Z,101199.00
2019-05-23T08:45:58.101Z,101196.00
2019-05-23T08:48:28.850Z,101194.00
2019-05-23T08:50:59.581Z,101195.00
2019-05-23T08:53:30.097Z,101194.00
2019-05-23T08:56:01.903Z,101193.00
2019-05-23T08:58:32.605Z,101197.00
2019-05-23T09:01:08.226Z,101197.00
2019-05-23T09:03:38.902Z,101195.00
2019-05-23T09:06:11.420Z,101192.00
2019-05-23T09:08:42.768Z,101189.00
2019-05-23T09:11:14.002Z,101191.00
2019-05-23T09:13:44.748Z,101188.00
2019-05-23T09:16:16.330Z,101182.00
2019-05-23T09:18:47.408Z,101185.00
2019-05-23T09:21:17.938Z,101185.00
2019-05-23T09:23:48.664Z,101178.00
2019-05-23T09:26:19.403Z,101178.00
2019-05-23T09:28:51.070Z,101164.00
2019-05-23T09:31:22.982Z,101172.00
2019-05-23T09:33:53.600Z,101169.00
2019-05-23T09:36:24.202Z,101170.00
2019-05-23T09:38:54.741Z,101176.00
2019-05-23T09:41:25.198Z,101172.00
2019-05-23T09:43:58.963Z,101168.00
2019-05-23T09:46:29.511Z,101171.00
2019-05-23T09:49:00.079Z,101179.00
2019-05-23T09:51:30.591Z,101173.00
2019-05-23T09:54:01.262Z,101160.00
2019-05-23T09:56:32.226Z,101164.00
2019-05-23T09:59:02.724Z,101166.00
2019-05-23T10:01:33.748Z,101158.00
2019-05-23T10:04:06.023Z,101155.00
2019-05-23T10:06:36.813Z,101167.00
2019-05-23T10:09:09.111Z,101157.00
2019-05-23T10:11:39.908Z,101158.00
2019-05-23T10:14:14.139Z,101159.00
2019-05-23T10:16:44.755Z,101163.00
2019-05-23T10:19:15.228Z,101158.00
2019-05-23T10:21:45.631Z,101155.00
2019-05-23T10:24:16.225Z,101154.00
2019-05-23T10:26:46.906Z,101155.00
2019-05-23T10:29:17.526Z,101156.00
2019-05-23T10:31:48.227Z,101155.00
2019-05-23T10:34:18.726Z,101150.00
2019-05-23T10:36:50.941Z,101155.00
2019-05-23T10:39:24.641Z,101153.00
2019-05-23T10:41:55.709Z,101151.00
2019-05-23T10:44:26.244Z,101145.00
2019-05-23T10:46:56.854Z,101146.00
2019-05-23T10:49:31.641Z,101150.00
2019-05-23T10:52:02.208Z,101142.00
2019-05-23T10:54:34.249Z,101131.00
2019-05-23T10:57:05.037Z,101137.00
2019-05-23T10:59:35.627Z,101137.00
2019-05-23T11:02:07.831Z,101143.00
2019-05-23T11:04:41.967Z,101138.00
2019-05-23T11:07:14.252Z,101135.00
2019-05-23T11:09:44.923Z,101132.00
2019-05-23T11:12:15.787Z,101133.00
2019-05-23T11:14:46.499Z,101134.00
2019-05-23T11:17:19.145Z,101123.00
2019-05-23T11:19:51.825Z,101130.00
2019-05-23T11:22:22.457Z,101140.00
2019-05-23T11:24:53.052Z,101116.00
2019-05-23T11:27:24.278Z,101130.00
2019-05-23T11:29:55.300Z,101111.00
2019-05-23T11:32:27.083Z,101116.00
2019-05-23T11:34:57.559Z,101118.00
2019-05-23T11:37:28.230Z,101113.00
2019-05-23T11:39:59.081Z,101110.00
2019-05-23T11:42:29.710Z,101116.00
2019-05-23T11:45:00.200Z,101099.00
2019-05-23T11:47:32.175Z,101103.00
2019-05-23T11:50:03.020Z,101111.00
2019-05-23T11:52:33.610Z,101104.00
2019-05-23T11:55:05.151Z,101096.00
2019-05-23T11:57:37.653Z,101103.00
2019-05-23T12:00:10.808Z,101102.00
2019-05-23T12:02:42.822Z,101091.00
2019-05-23T12:05:20.457Z,101087.00
2019-05-23T12:07:51.467Z,101089.00
2019-05-23T12:10:22.856Z,101085.00
2019-05-23T12:12:53.536Z,101080.00
2019-05-23T12:15:28.407Z,101094.00
2019-05-23T12:17:59.378Z,101082.00
2019-05-23T12:20:30.809Z,101078.00
2019-05-23T12:23:01.411Z,101068.00
2019-05-23T12:25:33.436Z,101067.00
2019-05-23T12:28:06.689Z,101071.00
2019-05-23T12:30:37.701Z,101072.00
2019-05-23T12:33:09.015Z,101076.00
2019-05-23T12:35:40.682Z,101072.00
2019-05-23T12:38:11.548Z,101076.00
2019-05-23T12:40:42.851Z,101066.00
2019-05-23T12:43:15.162Z,101061.00
2019-05-23T12:45:48.154Z,101057.00
2019-05-23T12:48:28.104Z,101055.00
2019-05-23T12:50:59.066Z,101056.00
2019-05-23T12:53:29.832Z,101061.00
2019-05-23T12:56:01.663Z,101059.00
2019-05-23T12:58:34.251Z,101058.00
2019-05-23T13:01:07.026Z,101057.00
2019-05-23T13:03:38.468Z,101050.00
2019-05-23T13:06:09.859Z,101048.00
2019-05-23T13:08:41.113Z,101042.00
2019-05-23T13:11:12.338Z,101038.00
2019-05-23T13:13:42.842Z,101038.00
2019-05-23T13:16:13.596Z,101037.00
2019-05-23T13:18:44.853Z,101040.00
2019-05-23T13:21:15.881Z,101039.00
2019-05-23T13:23:46.853Z,101049.00
2019-05-23T13:26:18.190Z,101038.00
2019-05-23T13:28:49.221Z,101040.00
2019-05-23T13:31:19.983Z,101032.00
2019-05-23T13:33:51.762Z,101018.00
2019-05-23T13:36:22.993Z,101021.00
2019-05-23T13:38:54.291Z,101022.00
2019-05-23T13:41:25.159Z,101025.00
2019-05-23T13:43:56.068Z,101025.00
2019-05-23T13:46:27.700Z,101028.00
2019-05-23T13:48:59.540Z,101014.00
2019-05-23T13:51:31.027Z,101015.00
2019-05-23T13:54:02.110Z,101009.00
2019-05-23T13:56:33.516Z,101006.00
2019-05-23T13:59:05.293Z,101012.00
2019-05-23T14:01:36.059Z,101006.00
2019-05-23T14:04:07.490Z,101000.00
2019-05-23T14:06:38.374Z,101009.00
2019-05-23T14:09:09.689Z,101008.00
2019-05-23T14:11:40.837Z,101000.00
2019-05-23T14:14:11.793Z,100994.00
2019-05-23T14:17:01.119Z,101000.00
2019-05-23T14:19:35.802Z,101003.00
2019-05-23T14:22:08.188Z,100999.00
2019-05-23T14:24:39.254Z,101004.00
2019-05-23T14:27:29.313Z,100994.00
2019-05-23T14:30:10.754Z,101000.00
2019-05-23T14:32:42.637Z,100993.00
2019-05-23T14:35:16.681Z,100984.00
2019-05-23T14:37:50.807Z,100985.00
2019-05-23T14:40:21.844Z,100984.00
2019-05-23T14:43:12.773Z,100983.00
2019-05-23T14:46:11.450Z,100979.00
2019-05-23T14:49:01.267Z,100977.00
2019-05-23T14:51:59.919Z,100979.00
2019-05-23T14:54:53.584Z,100976.00
2019-05-23T14:57:24.588Z,100976.00
2019-05-23T14:59:55.299Z,100964.00
2019-05-23T15:02:26.845Z,100963.00
2019-05-23T15:04:57.675Z,100965.00
2019-05-23T15:07:31.607Z,100974.00
2019-05-23T15:10:02.052Z,100969.00
2019-05-23T15:12:32.615Z,100962.00
2019-05-23T15:15:03.468Z,100970.00
2019-05-23T15:17:34.328Z,100960.00
2019-05-23T15:20:06.095Z,100977.00
2019-05-23T15:22:36.716Z,100965.00
2019-05-23T15:25:07.826Z,100968.00
2019-05-23T15:27:38.443Z,100961.00
2019-05-23T15:30:09.598Z,100956.00
2019-05-23T15:32:41.609Z,100956.00
2019-05-23T15:35:12.406Z,100960.00
2019-05-23T15:37:42.883Z,100959.00
2019-05-23T15:40:14.241Z,100955.00
2019-05-23T15:42:44.806Z,100957.00
2019-05-23T15:45:15.836Z,100946.00
2019-05-23T15:47:46.582Z,100944.00
2019-05-23T15:50:19.194Z,100950.00
2019-05-23T15:53:05.102Z,100947.00
2019-05-23T15:55:53.367Z,100950.00
2019-05-23T15:58:46.883Z,100945.00
2019-05-23T16:01:33.167Z,100938.00
2019-05-23T16:04:10.673Z,100943.00
2019-05-23T16:06:42.214Z,100940.00
2019-05-23T16:09:28.818Z,100945.00
2019-05-23T16:11:46.199Z,100942.00
2019-05-23T16:14:16.814Z,100937.00
2019-05-23T16:16:48.559Z,100935.00
2019-05-23T16:19:19.611Z,100931.00
2019-05-23T16:21:50.329Z,100933.00
2019-05-23T16:24:21.545Z,100933.00
2019-05-23T16:26:52.700Z,100928.00
2019-05-23T16:29:23.648Z,100930.00
2019-05-23T16:31:56.894Z,100922.00
2019-05-23T16:34:33.636Z,100929.00
2019-05-23T16:37:04.963Z,100927.00
2019-05-23T16:39:46.649Z,100918.00
2019-05-23T16:42:10.722Z,100928.00
2019-05-23T16:44:43.434Z,100921.00
2019-05-23T16:47:14.596Z,100911.00
2019-05-23T16:49:46.038Z,100922.00
2019-05-23T16:52:16.907Z,100933.00
2019-05-23T16:54:49.334Z,100916.00
2019-05-23T16:57:31.981Z,100913.00
2019-05-23T17:00:21.856Z,100922.00
2019-05-23T17:03:31.142Z,100912.00
2019-05-23T17:06:15.346Z,100909.00
2019-05-23T17:09:05.057Z,100915.00
2019-05-23T17:11:47.901Z,100910.00
2019-05-23T17:14:37.541Z,100911.00
2019-05-23T17:17:49.016Z,100910.00
2019-05-23T17:20:19.160Z,100915.00
2019-05-23T17:23:04.663Z,100908.00
2019-05-23T17:26:06.670Z,100900.00
2019-05-23T17:28:44.392Z,100907.00
2019-05-23T17:31:17.743Z,100899.00
2019-05-23T17:33:50.111Z,100908.00
2019-05-23T17:36:51.074Z,100909.00
2019-05-23T17:39:23.854Z,100898.00
2019-05-23T17:41:55.121Z,100901.00
2019-05-23T17:44:25.819Z,100902.00
2019-05-23T17:46:56.952Z,100900.00
2019-05-23T17:49:27.973Z,100901.00
2019-05-23T17:52:04.128Z,100905.00
2019-05-23T17:54:37.856Z,100911.00
2019-05-23T17:57:09.331Z,100902.00
2019-05-23T17:59:40.776Z,100898.00
2019-05-23T18:02:12.225Z,100909.00
2019-05-23T18:04:43.512Z,100904.00
2019-05-23T18:07:14.622Z,100904.00
2019-05-23T18:09:45.362Z,100899.00
2019-05-23T18:12:16.144Z,100904.00
2019-05-23T18:14:49.642Z,100912.00
2019-05-23T18:17:21.278Z,100900.00
2019-05-23T18:19:52.318Z,100910.00
2019-05-23T18:22:29.313Z,100898.00
2019-05-23T18:25:02.055Z,100902.00
2019-05-23T18:27:32.880Z,100901.00
2019-05-23T18:30:05.352Z,100901.00
2019-05-23T18:32:37.902Z,100896.00
2019-05-23T18:35:11.805Z,100893.00
2019-05-23T18:37:42.609Z,100889.00
2019-05-23T18:40:15.747Z,100898.00
2019-05-23T18:42:47.113Z,100904.00
2019-05-23T18:45:19.221Z,100902.00
2019-05-23T18:47:50.147Z,100895.00
2019-05-23T18:50:21.537Z,100889.00
2019-05-23T18:52:52.411Z,100901.00
2019-05-23T18:55:23.659Z,100896.00
2019-05-23T18:57:56.504Z,100899.00
2019-05-23T19:01:09.839Z,100899.00
2019-05-23T19:03:40.734Z,100891.00
2019-05-23T19:06:11.550Z,100895.00
2019-05-23T19:08:43.577Z,100894.00
2019-05-23T19:11:20.598Z,100892.00
2019-05-23T19:13:47.672Z,100890.00
2019-05-23T19:16:18.301Z,100895.00
2019-05-23T19:18:48.978Z,100898.00
2019-05-23T19:21:19.960Z,100896.00
2019-05-23T19:23:50.350Z,100897.00
2019-05-23T19:26:22.788Z,100904.00
2019-05-23T19:28:53.245Z,100900.00
2019-05-23T19:31:23.834Z,100905.00
2019-05-23T19:33:54.180Z,100902.00
2019-05-23T19:36:24.416Z,100898.00
2019-05-23T19:38:54.773Z,100900.00
2019-05-23T19:41:37.106Z,100898.00
2019-05-23T19:43:59.499Z,100901.00
2019-05-23T19:46:29.846Z,100904.00
2019-05-23T19:49:00.589Z,100899.00
2019-05-23T19:51:30.917Z,100895.00
2019-05-23T19:54:01.420Z,100893.00
2019-05-23T19:56:31.777Z,100899.00
2019-05-23T19:59:02.473Z,100892.00
2019-05-23T20:01:41.980Z,100887.00
2019-05-23T20:04:12.338Z,100881.00
2019-05-23T20:06:43.296Z,100891.00
2019-05-23T20:09:16.201Z,100888.00
2019-05-23T20:11:54.497Z,100885.00
2019-05-23T20:14:20.327Z,100883.00
2019-05-23T20:16:51.895Z,100885.00
2019-05-23T20:19:22.427Z,100888.00
2019-05-23T20:21:52.972Z,100890.00
2019-05-23T20:24:23.594Z,100898.00
2019-05-23T20:26:54.824Z,100897.00
2019-05-23T20:29:25.620Z,100888.00
2019-05-23T20:31:56.428Z,100889.00
2019-05-23T20:34:29.142Z,100878.00
2019-05-23T20:36:59.634Z,100893.00
2019-05-23T20:39:30.490Z,100873.00
2019-05-23T20:42:10.909Z,100875.00
2019-05-23T20:44:33.892Z,100872.00
2019-05-23T20:47:04.747Z,100877.00
2019-05-23T20:49:35.324Z,100869.00
2019-05-23T20:52:06.225Z,100872.00
2019-05-23T20:54:38.894Z,100874.00
2019-05-23T20:57:09.725Z,100882.00
2019-05-23T20:59:40.246Z,100863.00
2019-05-23T21:02:10.988Z,100875.00
2019-05-23T21:04:41.961Z,100872.00
2019-05-23T21:07:12.723Z,100871.00
2019-05-23T21:09:43.250Z,100873.00
2019-05-23T21:12:28.696Z,100868.00
2019-05-23T21:14:46.568Z,100866.00
2019-05-23T21:17:17.155Z,100857.00
2019-05-23T21:19:48.951Z,100866.00
2019-05-23T21:22:20.719Z,100873.00
2019-05-23T21:24:52.555Z,100870.00
2019-05-23T21:27:23.125Z,100871.00
2019-05-23T21:29:53.701Z,100868.00
2019-05-23T21:32:27.261Z,100866.00
2019-05-23T21:34:58.291Z,100873.00
2019-05-23T21:37:28.981Z,100874.00
2019-05-23T21:39:59.899Z,100861.00
2019-05-23T21:42:46.720Z,100876.00
2019-05-23T21:45:04.719Z,100875.00
2019-05-23T21:47:38.325Z,100870.00
2019-05-23T21:50:09.308Z,100867.00
2019-05-23T21:52:40.073Z,100859.00
2019-05-23T21:55:13.645Z,100869.00
2019-05-23T21:57:44.460Z,100860.00
2019-05-23T22:00:20.573Z,100857.00
2019-05-23T22:02:51.176Z,100852.00
2019-05-23T22:05:22.063Z,100849.00
2019-05-23T22:07:53.472Z,100853.00
2019-05-23T22:10:24.318Z,100846.00
2019-05-23T22:13:04.049Z,100848.00
2019-05-23T22:15:37.588Z,100843.00
2019-05-23T22:18:08.434Z,100855.00
2019-05-23T22:20:40.281Z,100839.00
2019-05-23T22:23:12.293Z,100844.00
2019-05-23T22:25:43.285Z,100838.00
2019-05-23T22:28:14.115Z,100830.00
2019-05-23T22:30:45.244Z,100831.00
2019-05-23T22:33:17.666Z,100834.00
2019-05-23T22:35:48.581Z,100824.00
2019-05-23T22:38:19.138Z,100824.00
2019-05-23T22:40:51.365Z,100828.00
2019-05-23T22:43:22.413Z,100827.00
2019-05-23T22:45:52.818Z,100824.00
2019-05-23T22:48:23.248Z,100826.00
2019-05-23T22:50:53.638Z,100812.00
2019-05-23T22:53:25.283Z,100819.00
2019-05-23T22:55:55.966Z,100813.00
2019-05-23T22:58:26.535Z,100809.00
2019-05-23T23:00:57.571Z,100814.00
2019-05-23T23:03:27.993Z,100813.00
2019-05-23T23:05:58.647Z,100810.00
2019-05-23T23:08:29.502Z,100804.00
2019-05-23T23:11:00.481Z,100806.00
2019-05-23T23:13:38.622Z,100809.00
2019-05-23T23:16:06.109Z,100801.00
2019-05-23T23:18:37.004Z,100804.00
2019-05-23T23:21:07.724Z,100793.00
2019-05-23T23:23:38.260Z,100799.00
2019-05-23T23:26:09.009Z,100800.00
2019-05-23T23:28:39.842Z,100800.00
2019-05-23T23:31:10.504Z,100795.00
2019-05-23T23:33:40.898Z,100794.00
2019-05-23T23:36:11.667Z,100804.00
2019-05-23T23:38:42.282Z,100798.00
2019-05-23T23:41:12.916Z,100795.00
2019-05-23T23:43:58.723Z,100799.00
2019-05-23T23:46:37.792Z,100799.00
2019-05-23T23:49:26.833Z,100791.00
2019-05-23T23:52:14.673Z,100784.00
2019-05-23T23:55:02.476Z,100790.00
2019-05-23T23:57:50.418Z,100788.00
